sensor_id;sensor_type;location;lat;lon;timestamp;P1;durP1;ratioP1;P2;durP2;ratioP2
74808;SDS011;63338;39.544;2.596;2022-10-13T00:00:51;7.50;;;4.20;;
74808;SDS011;63338;39.544;2.596;2022-10-13T00:03:17;8.52;;;4.45;;
74808;SDS011;63338;39.544;2.596;2022-10-13T00:05:47;7.60;;;4.40;;
74808;SDS011;63338;39.544;2.596;2022-10-13T00:08:15;7.80;;;4.18;;
74808;SDS011;63338;39.544;2.596;2022-10-13T00:10:44;10.50;;;4.60;;
74808;SDS011;63338;39.544;2.596;2022-10-13T00:13:12;9.60;;;4.80;;
74808;SDS011;63338;39.544;2.596;2022-10-13T00:15:40;11.38;;;4.70;;
74808;SDS011;63338;39.544;2.596;2022-10-13T00:18:07;9.52;;;4.43;;
74808;SDS011;63338;39.544;2.596;2022-10-13T00:20:34;7.60;;;4.40;;
74808;SDS011;63338;39.544;2.596;2022-10-13T00:23:00;8.73;;;4.50;;
74808;SDS011;63338;39.544;2.596;2022-10-13T00:25:27;7.78;;;4.53;;
74808;SDS011;63338;39.544;2.596;2022-10-13T00:27:53;6.97;;;3.80;;
74808;SDS011;63338;39.544;2.596;2022-10-13T00:30:19;8.18;;;4.43;;
74808;SDS011;63338;39.544;2.596;2022-10-13T00:32:45;7.93;;;4.30;;
74808;SDS011;63338;39.544;2.596;2022-10-13T00:35:11;9.95;;;4.00;;
74808;SDS011;63338;39.544;2.596;2022-10-13T00:37:39;9.70;;;4.60;;
74808;SDS011;63338;39.544;2.596;2022-10-13T00:40:05;8.55;;;4.32;;
74808;SDS011;63338;39.544;2.596;2022-10-13T00:42:32;11.07;;;4.22;;
74808;SDS011;63338;39.544;2.596;2022-10-13T00:47:48;8.73;;;3.85;;
74808;SDS011;63338;39.544;2.596;2022-10-13T00:50:25;10.15;;;4.10;;
74808;SDS011;63338;39.544;2.596;2022-10-13T00:52:56;6.75;;;4.20;;
74808;SDS011;63338;39.544;2.596;2022-10-13T00:55:25;6.80;;;3.80;;
74808;SDS011;63338;39.544;2.596;2022-10-13T00:57:56;6.57;;;4.20;;
74808;SDS011;63338;39.544;2.596;2022-10-13T01:00:26;9.23;;;4.32;;
74808;SDS011;63338;39.544;2.596;2022-10-13T01:02:52;8.05;;;4.20;;
74808;SDS011;63338;39.544;2.596;2022-10-13T01:05:19;9.63;;;4.07;;
74808;SDS011;63338;39.544;2.596;2022-10-13T01:07:47;8.48;;;4.43;;
74808;SDS011;63338;39.544;2.596;2022-10-13T01:10:15;10.02;;;4.10;;
74808;SDS011;63338;39.544;2.596;2022-10-13T01:15:49;10.45;;;4.53;;
74808;SDS011;63338;39.544;2.596;2022-10-13T01:21:05;9.15;;;4.25;;
74808;SDS011;63338;39.544;2.596;2022-10-13T01:35:08;9.23;;;4.85;;
74808;SDS011;63338;39.544;2.596;2022-10-13T01:40:12;7.90;;;4.38;;
74808;SDS011;63338;39.544;2.596;2022-10-13T01:43:00;10.70;;;5.47;;
74808;SDS011;63338;39.544;2.596;2022-10-13T01:45:43;8.52;;;4.43;;
74808;SDS011;63338;39.544;2.596;2022-10-13T01:48:15;12.15;;;5.35;;
74808;SDS011;63338;39.544;2.596;2022-10-13T01:50:43;10.38;;;4.93;;
74808;SDS011;63338;39.544;2.596;2022-10-13T01:53:10;8.20;;;4.90;;
74808;SDS011;63338;39.544;2.596;2022-10-13T01:55:53;10.43;;;4.80;;
74808;SDS011;63338;39.544;2.596;2022-10-13T01:58:21;7.65;;;4.68;;
74808;SDS011;63338;39.544;2.596;2022-10-13T02:01:13;8.57;;;4.80;;
74808;SDS011;63338;39.544;2.596;2022-10-13T02:09:17;10.30;;;5.43;;
74808;SDS011;63338;39.544;2.596;2022-10-13T02:11:53;9.40;;;4.90;;
74808;SDS011;63338;39.544;2.596;2022-10-13T02:14:25;12.32;;;5.10;;
74808;SDS011;63338;39.544;2.596;2022-10-13T02:16:54;13.98;;;4.90;;
74808;SDS011;63338;39.544;2.596;2022-10-13T02:19:24;11.10;;;5.57;;
74808;SDS011;63338;39.544;2.596;2022-10-13T02:21:55;10.55;;;5.50;;
74808;SDS011;63338;39.544;2.596;2022-10-13T02:24:23;13.82;;;5.80;;
74808;SDS011;63338;39.544;2.596;2022-10-13T02:26:49;12.55;;;5.32;;
74808;SDS011;63338;39.544;2.596;2022-10-13T02:29:16;9.60;;;5.00;;
74808;SDS011;63338;39.544;2.596;2022-10-13T02:31:43;12.13;;;4.75;;
74808;SDS011;63338;39.544;2.596;2022-10-13T02:34:11;9.50;;;5.07;;
74808;SDS011;63338;39.544;2.596;2022-10-13T02:36:37;12.48;;;5.32;;
74808;SDS011;63338;39.544;2.596;2022-10-13T02:39:05;11.05;;;4.68;;
74808;SDS011;63338;39.544;2.596;2022-10-13T02:41:33;11.05;;;5.32;;
74808;SDS011;63338;39.544;2.596;2022-10-13T02:43:59;10.48;;;5.88;;
74808;SDS011;63338;39.544;2.596;2022-10-13T02:46:29;12.00;;;5.32;;
74808;SDS011;63338;39.544;2.596;2022-10-13T02:48:55;11.93;;;5.50;;
74808;SDS011;63338;39.544;2.596;2022-10-13T02:51:22;6.18;;;4.43;;
74808;SDS011;63338;39.544;2.596;2022-10-13T02:53:48;12.55;;;4.72;;
74808;SDS011;63338;39.544;2.596;2022-10-13T02:56:14;10.13;;;5.13;;
74808;SDS011;63338;39.544;2.596;2022-10-13T02:58:40;10.85;;;5.22;;
74808;SDS011;63338;39.544;2.596;2022-10-13T03:01:08;8.60;;;4.88;;
74808;SDS011;63338;39.544;2.596;2022-10-13T03:03:36;9.70;;;4.88;;
74808;SDS011;63338;39.544;2.596;2022-10-13T03:06:03;9.98;;;5.13;;
74808;SDS011;63338;39.544;2.596;2022-10-13T03:08:30;12.75;;;4.90;;
74808;SDS011;63338;39.544;2.596;2022-10-13T03:10:57;12.18;;;5.18;;
74808;SDS011;63338;39.544;2.596;2022-10-13T03:13:23;9.43;;;5.32;;
74808;SDS011;63338;39.544;2.596;2022-10-13T03:15:50;11.50;;;4.80;;
74808;SDS011;63338;39.544;2.596;2022-10-13T03:18:16;8.35;;;4.78;;
74808;SDS011;63338;39.544;2.596;2022-10-13T03:20:42;8.52;;;5.15;;
74808;SDS011;63338;39.544;2.596;2022-10-13T03:23:08;8.55;;;4.80;;
74808;SDS011;63338;39.544;2.596;2022-10-13T03:25:34;11.43;;;4.95;;
74808;SDS011;63338;39.544;2.596;2022-10-13T03:28:00;9.30;;;4.57;;
74808;SDS011;63338;39.544;2.596;2022-10-13T03:30:26;8.48;;;5.15;;
74808;SDS011;63338;39.544;2.596;2022-10-13T03:32:53;7.55;;;4.68;;
74808;SDS011;63338;39.544;2.596;2022-10-13T03:35:19;10.57;;;4.95;;
74808;SDS011;63338;39.544;2.596;2022-10-13T03:37:46;9.27;;;5.13;;
74808;SDS011;63338;39.544;2.596;2022-10-13T03:40:13;10.55;;;4.85;;
74808;SDS011;63338;39.544;2.596;2022-10-13T03:42:42;9.95;;;5.30;;
74808;SDS011;63338;39.544;2.596;2022-10-13T03:45:08;10.07;;;5.38;;
74808;SDS011;63338;39.544;2.596;2022-10-13T03:47:37;8.90;;;5.07;;
74808;SDS011;63338;39.544;2.596;2022-10-13T03:50:04;10.30;;;5.25;;
74808;SDS011;63338;39.544;2.596;2022-10-13T03:52:30;11.57;;;5.15;;
74808;SDS011;63338;39.544;2.596;2022-10-13T03:54:56;10.73;;;6.00;;
74808;SDS011;63338;39.544;2.596;2022-10-13T03:57:22;9.70;;;5.38;;
74808;SDS011;63338;39.544;2.596;2022-10-13T03:59:48;9.68;;;4.82;;
74808;SDS011;63338;39.544;2.596;2022-10-13T04:02:14;8.93;;;5.45;;
74808;SDS011;63338;39.544;2.596;2022-10-13T04:04:40;8.57;;;5.20;;
74808;SDS011;63338;39.544;2.596;2022-10-13T04:07:07;9.73;;;5.10;;
74808;SDS011;63338;39.544;2.596;2022-10-13T04:09:33;9.63;;;5.80;;
74808;SDS011;63338;39.544;2.596;2022-10-13T04:11:59;13.23;;;5.75;;
74808;SDS011;63338;39.544;2.596;2022-10-13T04:14:25;11.85;;;5.50;;
74808;SDS011;63338;39.544;2.596;2022-10-13T04:16:51;10.00;;;5.60;;
74808;SDS011;63338;39.544;2.596;2022-10-13T04:19:17;9.52;;;5.55;;
74808;SDS011;63338;39.544;2.596;2022-10-13T04:21:43;9.45;;;5.80;;
74808;SDS011;63338;39.544;2.596;2022-10-13T04:24:13;12.82;;;5.97;;
74808;SDS011;63338;39.544;2.596;2022-10-13T04:26:42;11.35;;;6.25;;
74808;SDS011;63338;39.544;2.596;2022-10-13T04:29:10;11.38;;;6.38;;
74808;SDS011;63338;39.544;2.596;2022-10-13T04:31:37;12.13;;;6.50;;
74808;SDS011;63338;39.544;2.596;2022-10-13T04:34:04;8.57;;;6.10;;
74808;SDS011;63338;39.544;2.596;2022-10-13T04:36:30;8.43;;;5.60;;
74808;SDS011;63338;39.544;2.596;2022-10-13T04:39:00;11.80;;;5.88;;
74808;SDS011;63338;39.544;2.596;2022-10-13T04:41:26;10.48;;;6.10;;
74808;SDS011;63338;39.544;2.596;2022-10-13T04:43:53;11.10;;;6.00;;
74808;SDS011;63338;39.544;2.596;2022-10-13T04:46:23;12.45;;;6.07;;
74808;SDS011;63338;39.544;2.596;2022-10-13T04:48:51;11.90;;;6.82;;
74808;SDS011;63338;39.544;2.596;2022-10-13T04:51:20;12.25;;;6.25;;
74808;SDS011;63338;39.544;2.596;2022-10-13T04:53:47;12.38;;;6.43;;
74808;SDS011;63338;39.544;2.596;2022-10-13T04:56:17;13.77;;;7.20;;
74808;SDS011;63338;39.544;2.596;2022-10-13T04:58:44;12.75;;;6.65;;
74808;SDS011;63338;39.544;2.596;2022-10-13T05:01:14;14.73;;;7.15;;
74808;SDS011;63338;39.544;2.596;2022-10-13T05:03:45;13.20;;;6.20;;
74808;SDS011;63338;39.544;2.596;2022-10-13T05:06:15;13.10;;;7.15;;
74808;SDS011;63338;39.544;2.596;2022-10-13T05:08:42;13.55;;;7.10;;
74808;SDS011;63338;39.544;2.596;2022-10-13T05:11:08;17.83;;;7.80;;
74808;SDS011;63338;39.544;2.596;2022-10-13T05:13:37;12.25;;;7.88;;
74808;SDS011;63338;39.544;2.596;2022-10-13T05:16:07;12.98;;;6.50;;
74808;SDS011;63338;39.544;2.596;2022-10-13T05:18:37;13.15;;;7.32;;
74808;SDS011;63338;39.544;2.596;2022-10-13T05:23:34;14.82;;;7.00;;
74808;SDS011;63338;39.544;2.596;2022-10-13T05:26:04;11.63;;;7.35;;
74808;SDS011;63338;39.544;2.596;2022-10-13T05:28:35;9.63;;;7.13;;
74808;SDS011;63338;39.544;2.596;2022-10-13T05:31:15;14.77;;;7.15;;
74808;SDS011;63338;39.544;2.596;2022-10-13T05:33:43;15.90;;;8.15;;
74808;SDS011;63338;39.544;2.596;2022-10-13T05:36:10;17.48;;;8.35;;
74808;SDS011;63338;39.544;2.596;2022-10-13T05:38:38;16.20;;;8.40;;
74808;SDS011;63338;39.544;2.596;2022-10-13T05:41:09;15.55;;;7.68;;
74808;SDS011;63338;39.544;2.596;2022-10-13T05:43:39;15.65;;;8.60;;
74808;SDS011;63338;39.544;2.596;2022-10-13T05:46:06;14.02;;;8.18;;
74808;SDS011;63338;39.544;2.596;2022-10-13T05:48:33;16.05;;;8.45;;
74808;SDS011;63338;39.544;2.596;2022-10-13T05:51:04;16.27;;;8.20;;
74808;SDS011;63338;39.544;2.596;2022-10-13T05:53:35;16.48;;;8.20;;
74808;SDS011;63338;39.544;2.596;2022-10-13T05:56:09;16.13;;;8.88;;
74808;SDS011;63338;39.544;2.596;2022-10-13T05:58:46;15.73;;;8.25;;
74808;SDS011;63338;39.544;2.596;2022-10-13T06:01:20;15.02;;;8.60;;
74808;SDS011;63338;39.544;2.596;2022-10-13T06:06:16;15.10;;;8.82;;
74808;SDS011;63338;39.544;2.596;2022-10-13T06:08:42;14.82;;;8.98;;
74808;SDS011;63338;39.544;2.596;2022-10-13T06:11:12;18.67;;;8.90;;
74808;SDS011;63338;39.544;2.596;2022-10-13T06:13:38;15.38;;;7.93;;
74808;SDS011;63338;39.544;2.596;2022-10-13T06:16:07;13.15;;;7.30;;
74808;SDS011;63338;39.544;2.596;2022-10-13T06:18:33;15.27;;;8.45;;
74808;SDS011;63338;39.544;2.596;2022-10-13T06:20:59;13.90;;;7.95;;
74808;SDS011;63338;39.544;2.596;2022-10-13T06:23:25;15.60;;;8.88;;
74808;SDS011;63338;39.544;2.596;2022-10-13T06:25:54;13.85;;;8.40;;
74808;SDS011;63338;39.544;2.596;2022-10-13T06:28:20;19.30;;;8.98;;
74808;SDS011;63338;39.544;2.596;2022-10-13T06:30:47;15.13;;;8.35;;
74808;SDS011;63338;39.544;2.596;2022-10-13T06:33:22;19.08;;;8.63;;
74808;SDS011;63338;39.544;2.596;2022-10-13T06:35:49;14.90;;;8.52;;
74808;SDS011;63338;39.544;2.596;2022-10-13T06:38:17;17.48;;;8.68;;
74808;SDS011;63338;39.544;2.596;2022-10-13T06:40:44;15.82;;;7.97;;
74808;SDS011;63338;39.544;2.596;2022-10-13T06:43:10;15.38;;;8.15;;
74808;SDS011;63338;39.544;2.596;2022-10-13T06:45:36;16.73;;;7.82;;
74808;SDS011;63338;39.544;2.596;2022-10-13T06:48:03;13.63;;;7.72;;
74808;SDS011;63338;39.544;2.596;2022-10-13T06:50:29;16.42;;;7.57;;
74808;SDS011;63338;39.544;2.596;2022-10-13T06:52:56;18.33;;;8.20;;
74808;SDS011;63338;39.544;2.596;2022-10-13T06:55:22;20.02;;;8.48;;
74808;SDS011;63338;39.544;2.596;2022-10-13T06:57:48;16.80;;;7.35;;
74808;SDS011;63338;39.544;2.596;2022-10-13T07:00:14;12.57;;;7.75;;
74808;SDS011;63338;39.544;2.596;2022-10-13T07:02:40;17.65;;;7.93;;
74808;SDS011;63338;39.544;2.596;2022-10-13T07:05:06;16.33;;;7.53;;
74808;SDS011;63338;39.544;2.596;2022-10-13T07:07:33;12.95;;;6.95;;
74808;SDS011;63338;39.544;2.596;2022-10-13T07:09:59;17.63;;;7.95;;
74808;SDS011;63338;39.544;2.596;2022-10-13T07:12:25;15.55;;;8.13;;
74808;SDS011;63338;39.544;2.596;2022-10-13T07:14:51;13.98;;;7.43;;
74808;SDS011;63338;39.544;2.596;2022-10-13T07:17:17;15.90;;;7.65;;
74808;SDS011;63338;39.544;2.596;2022-10-13T07:19:43;14.23;;;6.72;;
74808;SDS011;63338;39.544;2.596;2022-10-13T07:22:12;16.33;;;7.53;;
74808;SDS011;63338;39.544;2.596;2022-10-13T07:24:38;13.65;;;7.40;;
74808;SDS011;63338;39.544;2.596;2022-10-13T07:27:05;12.18;;;6.65;;
74808;SDS011;63338;39.544;2.596;2022-10-13T07:29:31;13.55;;;6.32;;
74808;SDS011;63338;39.544;2.596;2022-10-13T07:31:57;13.52;;;6.35;;
74808;SDS011;63338;39.544;2.596;2022-10-13T07:34:23;14.93;;;5.80;;
74808;SDS011;63338;39.544;2.596;2022-10-13T07:36:49;9.90;;;5.63;;
74808;SDS011;63338;39.544;2.596;2022-10-13T07:39:15;17.05;;;6.63;;
74808;SDS011;63338;39.544;2.596;2022-10-13T07:41:41;12.40;;;6.13;;
74808;SDS011;63338;39.544;2.596;2022-10-13T07:44:07;10.40;;;6.00;;
74808;SDS011;63338;39.544;2.596;2022-10-13T07:46:33;15.90;;;5.97;;
74808;SDS011;63338;39.544;2.596;2022-10-13T07:48:59;14.40;;;5.18;;
74808;SDS011;63338;39.544;2.596;2022-10-13T07:51:25;13.32;;;5.32;;
74808;SDS011;63338;39.544;2.596;2022-10-13T07:53:51;17.45;;;5.70;;
74808;SDS011;63338;39.544;2.596;2022-10-13T07:56:18;12.77;;;5.13;;
74808;SDS011;63338;39.544;2.596;2022-10-13T07:58:45;11.93;;;4.95;;
74808;SDS011;63338;39.544;2.596;2022-10-13T08:01:12;14.35;;;5.18;;
74808;SDS011;63338;39.544;2.596;2022-10-13T08:03:42;15.10;;;4.88;;
74808;SDS011;63338;39.544;2.596;2022-10-13T08:06:08;17.23;;;4.93;;
74808;SDS011;63338;39.544;2.596;2022-10-13T08:08:38;13.77;;;4.53;;
74808;SDS011;63338;39.544;2.596;2022-10-13T08:11:06;14.25;;;5.15;;
74808;SDS011;63338;39.544;2.596;2022-10-13T08:13:34;10.20;;;4.72;;
74808;SDS011;63338;39.544;2.596;2022-10-13T08:16:00;12.27;;;4.85;;
74808;SDS011;63338;39.544;2.596;2022-10-13T08:18:26;12.20;;;4.15;;
74808;SDS011;63338;39.544;2.596;2022-10-13T08:20:53;15.10;;;4.35;;
74808;SDS011;63338;39.544;2.596;2022-10-13T08:23:19;13.48;;;4.20;;
74808;SDS011;63338;39.544;2.596;2022-10-13T08:25:45;12.13;;;4.05;;
74808;SDS011;63338;39.544;2.596;2022-10-13T08:28:15;13.07;;;4.43;;
74808;SDS011;63338;39.544;2.596;2022-10-13T08:30:44;9.48;;;4.43;;
74808;SDS011;63338;39.544;2.596;2022-10-13T08:33:11;14.48;;;4.30;;
74808;SDS011;63338;39.544;2.596;2022-10-13T08:35:37;10.85;;;4.22;;
74808;SDS011;63338;39.544;2.596;2022-10-13T08:38:03;12.90;;;4.72;;
74808;SDS011;63338;39.544;2.596;2022-10-13T08:40:29;13.27;;;4.32;;
74808;SDS011;63338;39.544;2.596;2022-10-13T08:42:56;10.75;;;3.78;;
74808;SDS011;63338;39.544;2.596;2022-10-13T08:45:27;12.57;;;4.60;;
74808;SDS011;63338;39.544;2.596;2022-10-13T08:47:58;14.05;;;4.38;;
74808;SDS011;63338;39.544;2.596;2022-10-13T08:50:38;15.52;;;4.32;;
74808;SDS011;63338;39.544;2.596;2022-10-13T08:55:53;12.07;;;4.20;;
74808;SDS011;63338;39.544;2.596;2022-10-13T08:58:41;7.75;;;3.25;;
74808;SDS011;63338;39.544;2.596;2022-10-13T09:03:55;10.23;;;3.40;;
74808;SDS011;63338;39.544;2.596;2022-10-13T09:06:31;8.70;;;3.28;;
74808;SDS011;63338;39.544;2.596;2022-10-13T09:09:06;10.77;;;3.20;;
74808;SDS011;63338;39.544;2.596;2022-10-13T09:11:40;10.60;;;3.05;;
74808;SDS011;63338;39.544;2.596;2022-10-13T09:14:13;15.25;;;4.00;;
74808;SDS011;63338;39.544;2.596;2022-10-13T09:16:44;12.88;;;3.25;;
74808;SDS011;63338;39.544;2.596;2022-10-13T09:21:57;8.77;;;3.10;;
74808;SDS011;63338;39.544;2.596;2022-10-13T09:24:40;10.25;;;3.17;;
74808;SDS011;63338;39.544;2.596;2022-10-13T09:27:14;7.85;;;3.10;;
74808;SDS011;63338;39.544;2.596;2022-10-13T09:29:41;8.13;;;3.15;;
74808;SDS011;63338;39.544;2.596;2022-10-13T09:32:17;9.13;;;2.83;;
74808;SDS011;63338;39.544;2.596;2022-10-13T09:34:45;11.35;;;3.17;;
74808;SDS011;63338;39.544;2.596;2022-10-13T09:37:20;8.02;;;2.90;;
74808;SDS011;63338;39.544;2.596;2022-10-13T09:40:00;8.93;;;3.17;;
74808;SDS011;63338;39.544;2.596;2022-10-13T09:42:38;9.50;;;3.10;;
74808;SDS011;63338;39.544;2.596;2022-10-13T09:45:12;12.38;;;3.20;;
74808;SDS011;63338;39.544;2.596;2022-10-13T09:47:49;8.77;;;3.10;;
74808;SDS011;63338;39.544;2.596;2022-10-13T09:50:26;11.10;;;3.28;;
74808;SDS011;63338;39.544;2.596;2022-10-13T09:53:08;11.18;;;3.33;;
74808;SDS011;63338;39.544;2.596;2022-10-13T09:58:53;8.70;;;3.10;;
74808;SDS011;63338;39.544;2.596;2022-10-13T10:01:31;10.45;;;3.83;;
74808;SDS011;63338;39.544;2.596;2022-10-13T10:04:02;10.75;;;3.17;;
74808;SDS011;63338;39.544;2.596;2022-10-13T10:06:31;10.50;;;3.40;;
74808;SDS011;63338;39.544;2.596;2022-10-13T10:08:59;13.15;;;3.13;;
74808;SDS011;63338;39.544;2.596;2022-10-13T10:11:38;11.27;;;3.28;;
74808;SDS011;63338;39.544;2.596;2022-10-13T10:16:52;7.57;;;3.15;;
74808;SDS011;63338;39.544;2.596;2022-10-13T10:19:21;10.27;;;3.00;;
74808;SDS011;63338;39.544;2.596;2022-10-13T10:24:45;10.23;;;3.50;;
74808;SDS011;63338;39.544;2.596;2022-10-13T10:27:42;9.40;;;2.90;;
74808;SDS011;63338;39.544;2.596;2022-10-13T10:30:17;10.52;;;3.20;;
74808;SDS011;63338;39.544;2.596;2022-10-13T10:32:57;7.97;;;3.30;;
74808;SDS011;63338;39.544;2.596;2022-10-13T10:43:51;8.27;;;3.10;;
74808;SDS011;63338;39.544;2.596;2022-10-13T10:46:33;12.05;;;3.25;;
74808;SDS011;63338;39.544;2.596;2022-10-13T10:49:10;11.63;;;3.25;;
74808;SDS011;63338;39.544;2.596;2022-10-13T10:51:41;9.63;;;3.10;;
74808;SDS011;63338;39.544;2.596;2022-10-13T10:56:53;8.50;;;2.92;;
74808;SDS011;63338;39.544;2.596;2022-10-13T10:59:33;6.45;;;2.83;;
74808;SDS011;63338;39.544;2.596;2022-10-13T11:04:49;10.40;;;3.20;;
74808;SDS011;63338;39.544;2.596;2022-10-13T11:15:01;10.52;;;3.13;;
74808;SDS011;63338;39.544;2.596;2022-10-13T11:17:36;8.23;;;3.08;;
74808;SDS011;63338;39.544;2.596;2022-10-13T11:22:46;10.60;;;3.15;;
74808;SDS011;63338;39.544;2.596;2022-10-13T11:25:41;11.23;;;3.13;;
74808;SDS011;63338;39.544;2.596;2022-10-13T11:31:23;9.57;;;2.95;;
74808;SDS011;63338;39.544;2.596;2022-10-13T11:33:51;12.85;;;3.45;;
74808;SDS011;63338;39.544;2.596;2022-10-13T11:36:29;8.63;;;2.83;;
74808;SDS011;63338;39.544;2.596;2022-10-13T11:42:23;8.82;;;3.30;;
74808;SDS011;63338;39.544;2.596;2022-10-13T12:00:50;7.90;;;2.97;;
74808;SDS011;63338;39.544;2.596;2022-10-13T12:03:20;7.97;;;3.17;;
74808;SDS011;63338;39.544;2.596;2022-10-13T12:05:55;8.68;;;2.83;;
74808;SDS011;63338;39.544;2.596;2022-10-13T12:08:27;9.95;;;3.33;;
74808;SDS011;63338;39.544;2.596;2022-10-13T12:10:55;9.93;;;3.00;;
74808;SDS011;63338;39.544;2.596;2022-10-13T12:13:25;7.90;;;3.08;;
74808;SDS011;63338;39.544;2.596;2022-10-13T12:15:57;10.10;;;2.92;;
74808;SDS011;63338;39.544;2.596;2022-10-13T12:18:39;10.68;;;2.83;;
74808;SDS011;63338;39.544;2.596;2022-10-13T12:21:15;7.80;;;2.92;;
74808;SDS011;63338;39.544;2.596;2022-10-13T12:23:44;8.60;;;2.97;;
74808;SDS011;63338;39.544;2.596;2022-10-13T12:26:21;8.63;;;3.00;;
74808;SDS011;63338;39.544;2.596;2022-10-13T12:28:51;10.93;;;2.95;;
74808;SDS011;63338;39.544;2.596;2022-10-13T12:31:23;8.75;;;3.33;;
74808;SDS011;63338;39.544;2.596;2022-10-13T12:33:55;8.43;;;3.20;;
74808;SDS011;63338;39.544;2.596;2022-10-13T12:36:26;7.03;;;2.80;;
74808;SDS011;63338;39.544;2.596;2022-10-13T12:38:57;14.25;;;3.65;;
74808;SDS011;63338;39.544;2.596;2022-10-13T12:41:35;9.10;;;3.45;;
74808;SDS011;63338;39.544;2.596;2022-10-13T12:44:06;6.50;;;3.30;;
74808;SDS011;63338;39.544;2.596;2022-10-13T12:49:11;10.40;;;3.20;;
74808;SDS011;63338;39.544;2.596;2022-10-13T12:51:45;9.30;;;3.47;;
74808;SDS011;63338;39.544;2.596;2022-10-13T12:54:23;7.35;;;2.95;;
74808;SDS011;63338;39.544;2.596;2022-10-13T12:56:59;14.15;;;3.30;;
74808;SDS011;63338;39.544;2.596;2022-10-13T12:59:28;7.20;;;3.53;;
74808;SDS011;63338;39.544;2.596;2022-10-13T13:01:59;8.02;;;3.13;;
74808;SDS011;63338;39.544;2.596;2022-10-13T13:04:37;8.05;;;3.28;;
74808;SDS011;63338;39.544;2.596;2022-10-13T13:07:20;9.45;;;3.60;;
74808;SDS011;63338;39.544;2.596;2022-10-13T13:12:42;11.07;;;3.72;;
74808;SDS011;63338;39.544;2.596;2022-10-13T13:15:16;11.30;;;3.70;;
74808;SDS011;63338;39.544;2.596;2022-10-13T13:17:48;8.13;;;3.63;;
74808;SDS011;63338;39.544;2.596;2022-10-13T13:22:53;18.45;;;3.42;;
74808;SDS011;63338;39.544;2.596;2022-10-13T13:25:20;13.93;;;3.58;;
74808;SDS011;63338;39.544;2.596;2022-10-13T13:27:46;10.55;;;3.30;;
74808;SDS011;63338;39.544;2.596;2022-10-13T13:30:13;7.45;;;2.90;;
74808;SDS011;63338;39.544;2.596;2022-10-13T13:32:41;9.15;;;3.10;;
74808;SDS011;63338;39.544;2.596;2022-10-13T13:35:07;7.18;;;3.20;;
74808;SDS011;63338;39.544;2.596;2022-10-13T13:37:39;12.55;;;3.50;;
74808;SDS011;63338;39.544;2.596;2022-10-13T13:40:15;6.38;;;3.15;;
74808;SDS011;63338;39.544;2.596;2022-10-13T13:42:43;9.20;;;2.92;;
74808;SDS011;63338;39.544;2.596;2022-10-13T13:45:17;10.70;;;3.03;;
74808;SDS011;63338;39.544;2.596;2022-10-13T13:47:45;9.88;;;3.30;;
74808;SDS011;63338;39.544;2.596;2022-10-13T13:50:22;8.32;;;3.13;;
74808;SDS011;63338;39.544;2.596;2022-10-13T13:52:50;7.25;;;2.60;;
74808;SDS011;63338;39.544;2.596;2022-10-13T13:55:16;6.65;;;2.88;;
74808;SDS011;63338;39.544;2.596;2022-10-13T13:57:42;8.52;;;2.65;;
74808;SDS011;63338;39.544;2.596;2022-10-13T14:00:09;5.20;;;2.50;;
74808;SDS011;63338;39.544;2.596;2022-10-13T14:02:37;7.05;;;2.67;;
74808;SDS011;63338;39.544;2.596;2022-10-13T14:05:03;6.47;;;2.90;;
74808;SDS011;63338;39.544;2.596;2022-10-13T14:07:29;9.30;;;2.40;;
74808;SDS011;63338;39.544;2.596;2022-10-13T14:09:55;5.97;;;2.22;;
74808;SDS011;63338;39.544;2.596;2022-10-13T14:12:21;6.90;;;2.47;;
74808;SDS011;63338;39.544;2.596;2022-10-13T14:14:47;6.05;;;2.47;;
74808;SDS011;63338;39.544;2.596;2022-10-13T14:17:13;11.00;;;3.25;;
74808;SDS011;63338;39.544;2.596;2022-10-13T14:19:40;7.28;;;2.60;;
74808;SDS011;63338;39.544;2.596;2022-10-13T14:22:06;6.30;;;2.47;;
74808;SDS011;63338;39.544;2.596;2022-10-13T14:24:33;6.38;;;2.67;;
74808;SDS011;63338;39.544;2.596;2022-10-13T14:26:59;11.60;;;2.78;;
74808;SDS011;63338;39.544;2.596;2022-10-13T14:29:25;7.85;;;2.78;;
74808;SDS011;63338;39.544;2.596;2022-10-13T14:31:51;9.05;;;2.63;;
74808;SDS011;63338;39.544;2.596;2022-10-13T14:34:17;6.90;;;2.65;;
74808;SDS011;63338;39.544;2.596;2022-10-13T14:36:43;10.70;;;2.85;;
74808;SDS011;63338;39.544;2.596;2022-10-13T14:39:12;9.15;;;2.35;;
74808;SDS011;63338;39.544;2.596;2022-10-13T14:41:38;6.13;;;2.40;;
74808;SDS011;63338;39.544;2.596;2022-10-13T14:44:08;9.20;;;3.05;;
74808;SDS011;63338;39.544;2.596;2022-10-13T14:46:36;8.00;;;3.08;;
74808;SDS011;63338;39.544;2.596;2022-10-13T14:49:02;7.47;;;2.83;;
74808;SDS011;63338;39.544;2.596;2022-10-13T14:51:28;9.55;;;2.83;;
74808;SDS011;63338;39.544;2.596;2022-10-13T14:53:55;6.90;;;2.92;;
74808;SDS011;63338;39.544;2.596;2022-10-13T14:56:22;5.30;;;2.60;;
74808;SDS011;63338;39.544;2.596;2022-10-13T14:58:50;7.25;;;2.35;;
74808;SDS011;63338;39.544;2.596;2022-10-13T15:01:21;8.32;;;2.75;;
74808;SDS011;63338;39.544;2.596;2022-10-13T15:03:48;6.85;;;2.35;;
74808;SDS011;63338;39.544;2.596;2022-10-13T15:06:16;7.30;;;2.38;;
74808;SDS011;63338;39.544;2.596;2022-10-13T15:08:45;8.73;;;2.70;;
74808;SDS011;63338;39.544;2.596;2022-10-13T15:11:11;5.55;;;2.55;;
74808;SDS011;63338;39.544;2.596;2022-10-13T15:13:38;6.72;;;2.53;;
74808;SDS011;63338;39.544;2.596;2022-10-13T15:16:05;6.90;;;2.67;;
74808;SDS011;63338;39.544;2.596;2022-10-13T15:18:32;7.43;;;2.58;;
74808;SDS011;63338;39.544;2.596;2022-10-13T15:21:00;5.15;;;2.55;;
74808;SDS011;63338;39.544;2.596;2022-10-13T15:23:26;5.43;;;2.08;;
74808;SDS011;63338;39.544;2.596;2022-10-13T15:25:53;5.30;;;2.50;;
74808;SDS011;63338;39.544;2.596;2022-10-13T15:28:21;9.30;;;3.22;;
74808;SDS011;63338;39.544;2.596;2022-10-13T15:30:48;10.70;;;3.05;;
74808;SDS011;63338;39.544;2.596;2022-10-13T15:33:15;6.78;;;2.80;;
74808;SDS011;63338;39.544;2.596;2022-10-13T15:35:41;8.27;;;2.83;;
74808;SDS011;63338;39.544;2.596;2022-10-13T15:38:07;12.55;;;3.03;;
74808;SDS011;63338;39.544;2.596;2022-10-13T15:40:37;7.97;;;3.03;;
74808;SDS011;63338;39.544;2.596;2022-10-13T15:43:06;7.68;;;2.97;;
74808;SDS011;63338;39.544;2.596;2022-10-13T15:45:33;6.13;;;3.13;;
74808;SDS011;63338;39.544;2.596;2022-10-13T15:48:00;7.90;;;3.20;;
74808;SDS011;63338;39.544;2.596;2022-10-13T15:50:27;6.07;;;2.80;;
74808;SDS011;63338;39.544;2.596;2022-10-13T15:52:53;9.25;;;3.28;;
74808;SDS011;63338;39.544;2.596;2022-10-13T15:55:19;8.70;;;3.08;;
74808;SDS011;63338;39.544;2.596;2022-10-13T15:57:45;5.47;;;3.05;;
74808;SDS011;63338;39.544;2.596;2022-10-13T16:00:12;7.45;;;3.10;;
74808;SDS011;63338;39.544;2.596;2022-10-13T16:02:40;6.40;;;3.13;;
74808;SDS011;63338;39.544;2.596;2022-10-13T16:05:07;7.63;;;3.10;;
74808;SDS011;63338;39.544;2.596;2022-10-13T16:07:35;6.72;;;2.80;;
74808;SDS011;63338;39.544;2.596;2022-10-13T16:10:02;7.80;;;3.28;;
74808;SDS011;63338;39.544;2.596;2022-10-13T16:12:29;7.20;;;3.20;;
74808;SDS011;63338;39.544;2.596;2022-10-13T16:14:55;12.10;;;3.60;;
74808;SDS011;63338;39.544;2.596;2022-10-13T16:17:21;6.90;;;3.28;;
74808;SDS011;63338;39.544;2.596;2022-10-13T16:19:48;9.07;;;3.42;;
74808;SDS011;63338;39.544;2.596;2022-10-13T16:22:14;6.30;;;3.38;;
74808;SDS011;63338;39.544;2.596;2022-10-13T16:24:40;8.50;;;3.70;;
74808;SDS011;63338;39.544;2.596;2022-10-13T16:27:07;6.63;;;3.20;;
74808;SDS011;63338;39.544;2.596;2022-10-13T16:29:33;8.23;;;3.35;;
74808;SDS011;63338;39.544;2.596;2022-10-13T16:31:59;7.15;;;3.28;;
74808;SDS011;63338;39.544;2.596;2022-10-13T16:34:25;7.88;;;3.33;;
74808;SDS011;63338;39.544;2.596;2022-10-13T16:36:52;7.82;;;3.53;;